To NAV CANADA Home Page Login to a new session Search on AWWS site Feedback and Comments Disclaimer Vers la page française équivalente Tips FAQ What's new on the site To the Forecasts and Observations / NOTAM section To "File a Flight Plan" website Publications and other links Update of the User's profile FIC Telephone Numbers My Weather Data Folder Route Weather Data Regional Weather Data Local Weather Data To the Forecasts and Observations / NOTAM section
Request Generated 05/29/2015 at 17:58:21 UTC . Weather information available at that time is displayed.

METAR/TAF

MONTREAL/MONTREAL INTL (MIRABEL)/QC    

METAR CYMX 291700Z VRB04KT 45SM FEW035 FEW250 22/14 A3027 RMK CF1CI2
CF TR SLP250 DENSITY ALT 700FT=
METAR CYMX 291600Z VRB05KT 45SM FEW035 SCT250 21/14 A3028 RMK CF1CI3
SLP256 DENSITY ALT 500FT=
METAR CYMX 291500Z 18005KT 45SM FEW035 SCT250 19/13 A3030 RMK CF1CI3
CF TR WND ESTD SLP260 DENSITY ALT 400FT=

TAF CYMX 291738Z 2918/3018 VRB03KT P6SM FEW030 SCT240
FM300700 VRB03KT P6SM BKN070 BKN140
FM301200 22010G20KT P6SM -SHRA BKN030 BKN100
BECMG 3015/3017 22015G25KT
RMK NXT FCST BY 300000Z=
Your time UTC time
Weather data provided by Environment Canada and NAV CANADA